Terminal Aerodrome Forecast
Issued by NWS Cleveland, OH

Home | Current Version | Previous Version | Text Only | Print | Product List | Glossary On
Versions: 1 2 3 4 5 6 7 8 9 10 11 12 13 14 15 16 17 18 19 20
000
FTUS41 KCLE 291100
TAFCAK
TAF
KCAK 291120Z 2912/3012 33005KT P6SM BKN028
      TEMPO 2912/2915 SCT028
     FM291500 01006KT P6SM BKN035
     FM292300 36005KT P6SM SCT035
     FM300100 VRB03KT P6SM SCT035=

USA.gov is the U.S. government's official web portal to all federal, state and local government web resources and services.